Time;durP1;ratioP1;P1;durP2;ratioP2;P2;SDS_P1;SDS_P2;PMS_P1;PMS_P2;Temp;Humidity;BMP_temperature;BMP_pressure;BME280_temperature;BME280_humidity;BME280_pressure;Samples;Min_cycle;Max_cycle;Signal;HPM_P1;HPM_P2
2022/07/11 00:00:56;;;;;;;5.93;3.70;;;17.50;68.10;;;;;;4943459;29;20894;-83
2022/07/11 00:03:27;;;;;;;5.60;3.93;;;17.30;69.70;;;;;;4930911;29;20537;-83
2022/07/11 00:05:56;;;;;;;6.50;3.70;;;17.30;69.40;;;;;;4924748;29;20560;-83
2022/07/11 00:08:23;;;;;;;6.50;3.53;;;17.30;69.40;;;;;;4924936;29;20462;-83
2022/07/11 00:10:52;;;;;;;8.10;4.80;;;17.20;70.30;;;;;;4934290;29;20453;-83
2022/07/11 00:13:20;;;;;;;6.53;4.23;;;17.20;72.10;;;;;;4943289;29;20469;-83
2022/07/11 00:15:47;;;;;;;10.60;5.13;;;17.10;72.70;;;;;;4944124;29;21045;-83
2022/07/11 00:18:31;;;;;;;;;;;;;;;;;;;;;
2022/07/11 00:20:57;;;;;;;10.33;7.27;;;17.00;74.70;;;;;;4942991;29;20554;-83
2022/07/11 00:23:24;;;;;;;11.50;10.40;;;17.00;75.50;;;;;;4940692;29;20564;-83
2022/07/11 00:25:54;;;;;;;11.53;10.47;;;17.00;76.10;;;;;;4938657;29;20503;-83
2022/07/11 00:28:21;;;;;;;16.80;15.80;;;17.00;77.00;;;;;;4943299;29;20456;-83
2022/07/11 00:30:51;;;;;;;22.70;21.33;;;16.90;78.10;;;;;;4943258;29;20902;-84
2022/07/11 00:33:20;;;;;;;21.53;20.33;;;16.80;78.40;;;;;;4941833;29;20504;-83
2022/07/11 00:35:52;;;;;;;16.27;15.17;;;16.90;78.70;;;;;;4943213;29;20495;-83
2022/07/11 00:38:28;;;;;;;27.97;25.97;;;16.80;79.20;;;;;;4940873;29;20532;-83
2022/07/11 00:40:55;;;;;;;34.97;33.07;;;16.80;79.60;;;;;;4937199;29;20483;-83
2022/07/11 00:43:33;;;;;;;30.00;28.57;;;16.80;80.80;;;;;;4942984;29;20477;-83
2022/07/11 00:46:01;;;;;;;35.57;33.57;;;16.80;80.60;;;;;;4943015;29;20487;-83
2022/07/11 00:48:30;;;;;;;43.60;41.53;;;16.60;81.30;;;;;;4942832;29;20455;-83
2022/07/11 00:50:58;;;;;;;46.33;44.40;;;16.60;82.20;;;;;;4943111;29;20457;-83
2022/07/11 00:53:25;;;;;;;55.73;53.27;;;16.60;82.90;;;;;;4942154;29;20477;-82
2022/07/11 00:55:55;;;;;;;73.70;70.70;;;16.60;83.00;;;;;;4942502;29;21089;-83
2022/07/11 00:58:23;;;;;;;65.33;62.67;;;16.60;83.10;;;;;;4941546;29;20461;-84
2022/07/11 01:00:50;;;;;;;95.90;92.50;;;16.50;84.00;;;;;;4942455;29;20479;-83
2022/07/11 01:03:17;;;;;;;103.87;100.23;;;16.50;84.80;;;;;;4942965;29;20485;-83
2022/07/11 01:05:46;;;;;;;133.23;128.33;;;16.40;85.60;;;;;;4943260;29;20515;-83
2022/07/11 01:08:18;;;;;;;130.97;126.17;;;16.40;86.70;;;;;;4942646;29;20461;-83
2022/07/11 01:10:45;;;;;;;132.93;128.33;;;16.30;87.30;;;;;;4941376;29;20471;-83
2022/07/11 01:13:12;;;;;;;193.73;187.43;;;16.20;88.10;;;;;;4941163;29;20478;-83
2022/07/11 01:15:39;;;;;;;226.83;219.60;;;16.10;89.30;;;;;;4942794;29;20459;-83
2022/07/11 01:18:09;;;;;;;249.57;241.90;;;16.10;90.10;;;;;;4942191;29;20458;-83
2022/07/11 01:20:36;;;;;;;264.50;255.70;;;16.00;90.80;;;;;;4943156;29;20531;-83
2022/07/11 01:23:13;;;;;;;318.23;308.03;;;15.80;91.40;;;;;;4939553;29;20522;-83
2022/07/11 01:25:40;;;;;;;375.77;363.37;;;15.70;92.60;;;;;;4942675;29;20450;-83
2022/07/11 01:28:10;;;;;;;407.50;393.90;;;15.60;93.30;;;;;;4940810;29;20456;-83
2022/07/11 01:30:37;;;;;;;442.33;425.83;;;15.50;93.90;;;;;;4942048;29;20855;-84
2022/07/11 01:33:06;;;;;;;460.63;443.93;;;15.40;94.80;;;;;;4932787;29;20531;-83
2022/07/11 01:35:33;;;;;;;498.37;480.47;;;15.30;95.30;;;;;;4923570;29;20462;-83
2022/07/11 01:38:02;;;;;;;560.17;538.07;;;15.10;96.20;;;;;;4923916;29;20462;-83
2022/07/11 01:40:31;;;;;;;670.00;639.97;;;14.90;97.60;;;;;;4934639;29;20457;-82
2022/07/11 01:42:58;;;;;;;699.87;667.27;;;14.80;99.60;;;;;;4941525;29;20519;-82
2022/07/11 01:45:27;;;;;;;721.07;687.17;;;14.80;99.90;;;;;;4942293;29;20492;-83
2022/07/11 01:47:54;;;;;;;744.43;708.33;;;14.60;99.90;;;;;;4941393;29;20461;-83
2022/07/11 01:50:21;;;;;;;793.80;752.40;;;14.60;99.90;;;;;;4942062;29;20465;-83
2022/07/11 01:52:47;;;;;;;800.03;758.13;;;14.40;99.90;;;;;;4936653;29;20478;-82
2022/07/11 01:55:14;;;;;;;819.67;775.00;;;14.30;99.90;;;;;;4941251;29;20452;-82
2022/07/11 01:57:43;;;;;;;828.90;784.23;;;14.20;99.90;;;;;;4941520;29;21025;-83
2022/07/11 02:00:11;;;;;;;843.83;797.67;;;14.20;99.90;;;;;;4940888;29;20457;-83
2022/07/11 02:02:40;;;;;;;869.87;819.57;;;14.00;99.90;;;;;;4942217;29;20488;-83
2022/07/11 02:05:08;;;;;;;867.33;816.93;;;14.00;99.90;;;;;;4941856;29;20453;-83
2022/07/11 02:10:19;;;;;;;930.13;869.70;;;13.90;99.90;;;;;;4941117;29;20473;-83
2022/07/11 02:12:48;;;;;;;936.50;873.90;;;13.90;99.90;;;;;;4942180;29;20480;-83
2022/07/11 02:15:15;;;;;;;924.33;863.87;;;13.90;99.90;;;;;;4922007;29;20509;-83
2022/07/11 02:17:43;;;;;;;932.07;870.77;;;13.80;99.90;;;;;;4923535;29;20847;-83
2022/07/11 02:20:11;;;;;;;926.67;865.03;;;13.70;99.90;;;;;;4922977;29;20457;-83
2022/07/11 02:22:39;;;;;;;942.33;877.83;;;13.70;99.90;;;;;;4922968;29;20496;-83
2022/07/11 02:25:07;;;;;;;943.10;879.40;;;13.70;99.90;;;;;;4939811;29;20529;-83
2022/07/11 02:27:36;;;;;;;939.47;876.30;;;13.70;99.90;;;;;;4942293;29;20483;-83
2022/07/11 02:30:05;;;;;;;943.27;879.77;;;13.60;99.90;;;;;;4942068;29;20543;-83
2022/07/11 02:32:32;;;;;;;940.80;876.13;;;13.50;99.90;;;;;;4941417;29;20475;-82
2022/07/11 02:35:02;;;;;;;967.90;901.27;;;13.40;99.90;;;;;;4926446;29;20446;-83
2022/07/11 02:37:31;;;;;;;957.90;891.33;;;13.40;99.90;;;;;;4933589;29;20460;-82
2022/07/11 02:39:58;;;;;;;965.47;897.47;;;13.40;99.90;;;;;;4941257;29;20459;-82
2022/07/11 02:42:25;;;;;;;950.83;883.73;;;13.30;99.90;;;;;;4939297;29;20465;-83
2022/07/11 02:44:52;;;;;;;956.17;888.97;;;13.40;99.90;;;;;;4945095;29;20480;-83
2022/07/11 02:47:20;;;;;;;964.40;893.77;;;13.20;99.90;;;;;;4945243;29;20460;-83
2022/07/11 02:49:47;;;;;;;986.90;911.50;;;13.30;99.90;;;;;;4945429;29;20964;-83
2022/07/11 02:52:18;;;;;;;976.80;903.90;;;13.30;99.90;;;;;;4939065;29;20476;-83
2022/07/11 02:54:45;;;;;;;986.93;912.03;;;13.20;99.90;;;;;;4946052;29;20461;-83
2022/07/11 02:57:12;;;;;;;996.30;918.47;;;13.20;99.90;;;;;;4944892;29;20463;-83
2022/07/11 02:59:42;;;;;;;990.23;913.37;;;13.20;99.90;;;;;;4944945;29;20448;-83
2022/07/11 03:02:08;;;;;;;981.30;906.70;;;13.10;99.90;;;;;;4944874;29;20476;-83
2022/07/11 03:04:36;;;;;;;978.33;904.73;;;13.00;99.90;;;;;;4940328;29;20479;-82
2022/07/11 03:07:03;;;;;;;963.03;888.37;;;13.00;99.90;;;;;;4938001;29;20456;-80
2022/07/11 03:09:30;;;;;;;962.90;891.20;;;13.10;99.90;;;;;;4942015;29;20456;-80
2022/07/11 03:11:57;;;;;;;948.37;876.77;;;13.20;99.90;;;;;;4931718;29;20481;-80
2022/07/11 03:14:24;;;;;;;919.30;851.93;;;13.30;99.90;;;;;;4923622;29;20460;-80
2022/07/11 03:16:50;;;;;;;921.83;856.33;;;13.40;99.90;;;;;;4943203;29;20457;-81
2022/07/11 03:19:17;;;;;;;919.57;855.80;;;13.40;99.90;;;;;;4943112;29;20460;-80
2022/07/11 03:21:45;;;;;;;902.93;844.13;;;13.50;99.90;;;;;;4943912;29;20477;-80
2022/07/11 03:24:12;;;;;;;926.83;863.87;;;13.40;99.90;;;;;;4942912;29;20484;-80
2022/07/11 03:26:39;;;;;;;934.50;871.60;;;13.30;99.90;;;;;;4943051;29;20826;-80
2022/07/11 03:29:07;;;;;;;942.17;877.70;;;13.30;99.90;;;;;;4925432;29;20454;-80
2022/07/11 03:31:34;;;;;;;942.87;876.50;;;13.20;99.90;;;;;;4932065;29;21021;-82
2022/07/11 03:34:01;;;;;;;938.00;869.60;;;13.10;99.90;;;;;;4941054;29;20455;-82
2022/07/11 03:36:28;;;;;;;937.10;866.13;;;13.10;99.90;;;;;;4949336;29;20449;-83
2022/07/11 03:38:56;;;;;;;930.93;858.53;;;13.00;99.90;;;;;;4942204;29;20455;-83
2022/07/11 03:41:23;;;;;;;923.43;850.40;;;13.00;99.90;;;;;;4952231;29;20509;-83
2022/07/11 03:43:49;;;;;;;910.77;837.43;;;12.90;99.90;;;;;;4934930;29;21028;-81
2022/07/11 03:46:16;;;;;;;907.07;830.60;;;12.80;99.90;;;;;;4933804;29;20457;-82
2022/07/11 03:48:43;;;;;;;893.97;817.57;;;12.80;99.90;;;;;;4932030;29;20457;-83
2022/07/11 03:51:10;;;;;;;887.60;810.20;;;12.80;99.90;;;;;;4949079;29;20463;-82
2022/07/11 03:53:37;;;;;;;887.10;808.57;;;12.80;99.90;;;;;;4947996;29;20480;-82
2022/07/11 03:56:06;;;;;;;890.77;809.67;;;12.80;99.90;;;;;;4950483;29;20444;-83
2022/07/11 03:58:33;;;;;;;897.37;815.77;;;12.90;99.90;;;;;;4951808;29;20450;-83
2022/07/11 04:00:59;;;;;;;881.37;798.27;;;12.80;99.90;;;;;;4951251;29;20453;-83
2022/07/11 04:03:26;;;;;;;876.60;794.90;;;12.80;99.90;;;;;;4951662;29;20483;-82
2022/07/11 04:05:53;;;;;;;865.73;784.60;;;12.80;99.90;;;;;;4951139;29;20468;-83
2022/07/11 04:08:20;;;;;;;872.87;791.07;;;12.90;99.90;;;;;;4944634;29;20456;-82
2022/07/11 04:10:46;;;;;;;864.80;780.43;;;13.00;99.90;;;;;;4945209;29;20933;-83
2022/07/11 04:13:15;;;;;;;877.57;792.30;;;13.20;99.90;;;;;;4951214;29;20481;-83
2022/07/11 04:15:41;;;;;;;881.23;795.77;;;13.40;99.90;;;;;;4951400;29;20461;-82
2022/07/11 04:18:13;;;;;;;867.87;784.97;;;13.50;99.90;;;;;;4949867;29;20453;-82
2022/07/11 04:20:40;;;;;;;858.57;776.50;;;13.80;99.90;;;;;;4949327;29;20481;-82
2022/07/11 04:23:07;;;;;;;847.77;765.47;;;14.00;99.90;;;;;;4946332;29;20513;-82
2022/07/11 04:28:25;;;;;;;896.77;814.67;;;14.30;99.90;;;;;;4923549;29;20973;-80
2022/07/11 04:30:54;;;;;;;923.97;843.47;;;14.50;99.90;;;;;;4937557;29;20445;-81
2022/07/11 04:33:24;;;;;;;931.87;851.40;;;14.70;99.90;;;;;;4921379;29;20474;-80
2022/07/11 04:35:57;;;;;;;919.70;841.20;;;14.80;99.90;;;;;;4934714;29;20445;-81
2022/07/11 04:38:24;;;;;;;920.17;843.43;;;14.90;99.90;;;;;;4939900;29;20855;-81
2022/07/11 04:40:59;;;;;;;906.60;833.77;;;15.00;99.90;;;;;;4939446;29;21053;-81
2022/07/11 04:43:38;;;;;;;911.10;839.90;;;14.90;99.90;;;;;;4938363;29;20531;-81
2022/07/11 04:46:08;;;;;;;910.90;841.50;;;15.10;99.90;;;;;;4939682;29;20477;-81
2022/07/11 04:48:48;;;;;;;907.30;841.37;;;15.20;99.90;;;;;;4926828;29;20458;-81
2022/07/11 04:51:26;;;;;;;905.20;841.60;;;15.30;99.90;;;;;;4919493;29;20549;-81
2022/07/11 04:53:53;;;;;;;896.97;837.90;;;15.40;99.90;;;;;;4933768;29;21029;-80
2022/07/11 04:56:20;;;;;;;877.97;822.67;;;15.50;99.90;;;;;;4939104;29;20544;-81
2022/07/11 04:59:13;;;;;;;882.23;828.00;;;15.70;99.90;;;;;;4932531;29;20459;-82
2022/07/11 05:01:56;;;;;;;871.17;817.90;;;15.80;99.90;;;;;;4939403;29;20566;-81
2022/07/11 05:04:23;;;;;;;849.67;799.37;;;15.80;99.90;;;;;;4938768;29;20479;-82
2022/07/11 05:06:52;;;;;;;802.10;757.60;;;15.90;99.90;;;;;;4938904;29;20459;-82
2022/07/11 05:09:19;;;;;;;769.23;727.77;;;16.00;99.90;;;;;;4935901;29;20461;-82
2022/07/11 05:11:46;;;;;;;769.80;728.67;;;16.20;99.90;;;;;;4938958;29;20479;-81
2022/07/11 05:14:14;;;;;;;748.53;709.43;;;16.20;99.90;;;;;;4937965;29;20833;-81
2022/07/11 05:16:41;;;;;;;686.80;654.20;;;16.30;99.90;;;;;;4934393;29;20455;-86
2022/07/11 05:19:08;;;;;;;665.20;633.63;;;16.30;99.90;;;;;;4944446;29;20475;-83
2022/07/11 05:21:34;;;;;;;616.97;589.07;;;16.30;99.90;;;;;;4943182;29;20956;-83
2022/07/11 05:24:01;;;;;;;612.13;584.93;;;16.40;99.90;;;;;;4942377;29;20553;-83
2022/07/11 05:26:28;;;;;;;603.87;577.00;;;16.40;99.90;;;;;;4942220;29;20466;-83
2022/07/11 05:28:56;;;;;;;621.10;592.90;;;16.40;99.90;;;;;;4936478;29;20457;-83
2022/07/11 05:31:24;;;;;;;589.73;563.13;;;16.50;99.90;;;;;;4943569;29;20461;-80
2022/07/11 05:33:51;;;;;;;598.63;571.43;;;16.50;99.90;;;;;;4939297;29;20460;-82
2022/07/11 05:36:18;;;;;;;599.97;573.27;;;16.60;99.90;;;;;;4938759;29;20464;-82
2022/07/11 05:38:44;;;;;;;563.40;538.77;;;16.70;99.90;;;;;;4934856;29;20522;-83
2022/07/11 05:41:11;;;;;;;538.70;515.43;;;16.80;99.90;;;;;;4938383;29;20462;-83
2022/07/11 05:43:38;;;;;;;479.00;459.70;;;16.90;99.90;;;;;;4931220;29;20483;-82
2022/07/11 05:46:05;;;;;;;418.73;403.13;;;17.00;99.90;;;;;;4919970;29;20487;-83
2022/07/11 05:48:34;;;;;;;376.57;363.07;;;17.00;99.90;;;;;;4919933;29;20456;-83
2022/07/11 05:51:00;;;;;;;325.47;314.67;;;17.10;99.90;;;;;;4935003;29;20455;-83
2022/07/11 05:53:27;;;;;;;324.53;313.30;;;17.20;99.90;;;;;;4932606;29;20483;-83
2022/07/11 05:55:54;;;;;;;261.77;253.33;;;17.30;99.90;;;;;;4927437;29;20452;-84
2022/07/11 05:58:21;;;;;;;220.03;212.77;;;17.30;99.90;;;;;;4938526;29;20455;-84
2022/07/11 06:00:48;;;;;;;110.10;106.23;;;17.40;99.90;;;;;;4945255;29;20470;-86
2022/07/11 06:03:14;;;;;;;86.80;83.30;;;17.50;98.40;;;;;;4939125;29;20473;-85
2022/07/11 06:05:42;;;;;;;50.40;48.40;;;17.60;97.50;;;;;;4944578;29;20488;-84
2022/07/11 06:10:53;;;;;;;37.90;36.20;;;17.70;96.50;;;;;;4943631;29;20480;-84
2022/07/11 06:13:25;;;;;;;38.27;36.23;;;17.70;95.90;;;;;;4943748;29;20559;-80
2022/07/11 06:15:52;;;;;;;15.33;14.43;;;17.70;95.30;;;;;;4938604;29;20455;-85
2022/07/11 06:18:20;;;;;;;18.63;17.63;;;17.80;94.20;;;;;;4939327;29;20463;-85
2022/07/11 06:20:49;;;;;;;23.70;22.50;;;17.80;94.20;;;;;;4941032;29;20481;-85
2022/07/11 06:23:16;;;;;;;11.53;10.80;;;17.80;94.50;;;;;;4947657;29;20858;-85
2022/07/11 06:25:43;;;;;;;18.10;16.93;;;17.90;93.90;;;;;;4928130;29;20549;-80
2022/07/11 06:28:09;;;;;;;12.30;11.30;;;18.00;94.30;;;;;;4923552;29;20519;-82
2022/07/11 06:30:37;;;;;;;14.77;13.87;;;18.00;93.30;;;;;;4933518;29;20527;-80
2022/07/11 06:33:04;;;;;;;13.50;12.23;;;18.00;93.70;;;;;;4937173;29;20523;-81
2022/07/11 06:35:31;;;;;;;12.90;8.10;;;18.00;92.80;;;;;;4934348;29;20454;-81
2022/07/11 06:37:59;;;;;;;9.27;7.67;;;18.00;92.70;;;;;;4938391;29;20540;-80
2022/07/11 06:40:26;;;;;;;7.87;7.17;;;18.00;91.90;;;;;;4937616;29;20470;-79
2022/07/11 06:43:36;;;;;;;9.13;7.00;;;17.90;92.20;;;;;;4935638;29;20484;-83
2022/07/11 06:46:30;;;;;;;6.27;5.67;;;18.00;92.50;;;;;;4940067;29;20540;-83
2022/07/11 06:48:57;;;;;;;9.03;3.93;;;18.10;91.90;;;;;;4944863;29;20464;-82
2022/07/11 06:51:24;;;;;;;5.80;4.10;;;18.10;90.80;;;;;;4932593;29;20454;-82
2022/07/11 06:54:09;;;;;;;10.60;3.90;;;18.00;91.20;;;;;;4940615;29;20450;-84
2022/07/11 06:56:36;;;;;;;5.00;2.93;;;17.90;90.90;;;;;;4946585;29;20485;-84
2022/07/11 06:59:36;;;;;;;6.90;5.90;;;17.80;90.80;;;;;;4945633;29;20838;-84
2022/07/11 07:02:16;;;;;;;9.13;5.57;;;17.90;92.00;;;;;;4945433;29;20493;-83
2022/07/11 07:05:13;;;;;;;8.63;5.97;;;17.90;92.10;;;;;;4937165;29;20472;-84
2022/07/11 07:08:11;;;;;;;10.90;9.90;;;17.80;91.70;;;;;;4943736;29;20464;-84
2022/07/11 07:11:26;;;;;;;9.95;9.15;;;17.90;91.80;;;;;;4924802;29;20469;-84
2022/07/11 07:14:16;;;;;;;7.83;4.87;;;17.90;91.40;;;;;;4939888;29;20289;-85
2022/07/11 07:16:43;;;;;;;9.70;6.00;;;18.00;91.70;;;;;;4945478;29;20539;-83
2022/07/11 07:19:10;;;;;;;7.73;6.00;;;18.10;91.70;;;;;;4936488;29;20494;-83
2022/07/11 07:21:36;;;;;;;6.07;4.80;;;18.00;91.80;;;;;;4944753;29;20476;-83
2022/07/11 07:24:03;;;;;;;10.07;6.63;;;18.10;90.80;;;;;;4944295;29;20543;-83
2022/07/11 07:26:32;;;;;;;7.13;5.00;;;18.10;91.40;;;;;;4944934;29;21046;-83
2022/07/11 07:28:59;;;;;;;11.50;4.80;;;18.20;90.90;;;;;;4936705;29;20463;-82
2022/07/11 07:31:29;;;;;;;10.87;5.03;;;18.00;90.90;;;;;;4944557;29;20907;-82
2022/07/11 07:33:55;;;;;;;10.03;6.77;;;18.00;91.20;;;;;;4944701;29;20487;-82
2022/07/11 07:36:47;;;;;;;5.57;4.27;;;18.00;92.10;;;;;;4945429;29;20481;-84
2022/07/11 07:39:33;;;;;;;;;;;;;;;;;;;;;
2022/07/11 07:42:22;;;;;;;8.50;5.77;;;17.90;90.80;;;;;;4946640;29;20487;-84
2022/07/11 07:44:49;;;;;;;8.90;5.10;;;18.20;91.60;;;;;;4936892;29;20502;-83
2022/07/11 07:47:20;;;;;;;6.27;5.10;;;18.30;91.00;;;;;;4942200;29;20456;-83
2022/07/11 07:49:46;;;;;;;5.30;4.77;;;18.20;90.30;;;;;;4944513;29;20487;-83
2022/07/11 07:52:14;;;;;;;6.90;4.80;;;18.30;91.00;;;;;;4944843;29;20558;-83
2022/07/11 07:54:44;;;;;;;8.80;4.77;;;18.30;90.40;;;;;;4945434;29;20459;-80
2022/07/11 07:57:16;;;;;;;9.40;4.72;;;18.30;89.60;;;;;;4943967;29;20469;-85
2022/07/11 07:59:46;;;;;;;5.83;4.80;;;18.50;89.00;;;;;;4948466;29;20202;-85
2022/07/11 08:02:29;;;;;;;6.93;3.40;;;18.80;88.20;;;;;;4949295;29;20472;-85
2022/07/11 08:04:59;;;;;;;6.40;3.53;;;19.10;85.20;;;;;;4948028;29;20483;-85
2022/07/11 08:07:38;;;;;;;6.57;2.97;;;19.40;82.70;;;;;;4948572;29;20546;-85
2022/07/11 08:10:11;;;;;;;6.73;4.10;;;19.60;80.90;;;;;;4949153;29;20453;-85
2022/07/11 08:12:51;;;;;;;8.00;4.13;;;19.90;79.40;;;;;;4949090;29;20478;-86
2022/07/11 08:15:29;;;;;;;8.83;3.00;;;20.20;76.60;;;;;;4948990;29;20945;-85
2022/07/11 08:17:56;;;;;;;5.40;2.77;;;20.60;74.60;;;;;;4949061;29;20563;-85
2022/07/11 08:20:25;;;;;;;6.20;2.87;;;20.80;70.80;;;;;;4947162;29;20471;-86
2022/07/11 08:23:09;;;;;;;6.20;2.80;;;21.50;71.50;;;;;;4946690;29;20480;-86
2022/07/11 08:25:48;;;;;;;5.23;2.17;;;22.20;63.80;;;;;;4948063;29;20480;-86
2022/07/11 08:28:45;;;;;;;4.77;2.30;;;21.90;63.10;;;;;;4948482;29;20635;-86
2022/07/11 08:31:17;;;;;;;4.43;2.10;;;21.70;62.30;;;;;;4939631;29;20479;-85
2022/07/11 08:33:48;;;;;;;5.03;1.60;;;21.40;62.10;;;;;;4948251;29;20461;-83
2022/07/11 08:36:34;;;;;;;;;;;;;;;;;;;;;
2022/07/11 08:39:02;;;;;;;4.00;1.60;;;21.50;63.20;;;;;;4947064;29;20473;-86
2022/07/11 08:41:40;;;;;;;9.40;2.00;;;21.50;61.80;;;;;;4947749;29;20540;-86
2022/07/11 08:44:09;;;;;;;4.03;1.70;;;21.20;64.00;;;;;;4948557;29;20456;-86
2022/07/11 08:46:47;;;;;;;6.77;1.97;;;21.00;64.30;;;;;;4947864;29;20485;-85
2022/07/11 08:49:17;;;;;;;4.57;1.90;;;20.70;64.70;;;;;;4948852;29;20466;-85
2022/07/11 08:51:51;;;;;;;4.60;1.93;;;20.50;65.90;;;;;;4949669;29;20497;-86
2022/07/11 08:54:19;;;;;;;4.10;1.70;;;20.20;66.60;;;;;;4948553;29;20466;-85
2022/07/11 08:56:48;;;;;;;7.70;1.93;;;20.20;67.00;;;;;;4947748;29;20456;-86
2022/07/11 09:02:53;;;;;;;4.77;1.30;;;20.20;68.40;;;;;;4945940;29;20466;-87
2022/07/11 09:05:38;;;;;;;5.33;1.90;;;20.30;67.70;;;;;;4924038;29;20912;-86
2022/07/11 09:08:18;;;;;;;3.80;1.40;;;20.50;65.00;;;;;;4943793;29;20523;-86
2022/07/11 09:11:11;;;;;;;4.10;1.60;;;20.80;65.00;;;;;;4946322;29;20457;-86
2022/07/11 09:13:42;;;;;;;3.93;1.10;;;21.00;62.80;;;;;;4948938;23;20910;-84
2022/07/11 09:16:16;;;;;;;8.40;1.40;;;20.80;62.60;;;;;;4946382;29;20471;-84
2022/07/11 09:18:57;;;;;;;4.00;2.03;;;20.60;63.50;;;;;;4947231;29;20454;-83
2022/07/11 09:27:12;;;;;;;4.17;1.47;;;20.60;63.40;;;;;;4947848;29;20483;-84
2022/07/11 09:29:41;;;;;;;4.20;1.60;;;20.70;64.20;;;;;;4946107;29;20814;-85
2022/07/11 09:32:28;;;;;;;3.87;1.57;;;20.80;62.90;;;;;;4947044;29;20479;-85
2022/07/11 09:35:19;;;;;;;3.60;1.30;;;20.80;65.50;;;;;;4946575;29;20988;-84
2022/07/11 09:37:57;;;;;;;7.43;1.63;;;20.60;63.30;;;;;;4947553;29;20531;-84
2022/07/11 09:40:27;;;;;;;6.70;1.93;;;20.30;66.60;;;;;;4947124;29;20484;-85
2022/07/11 09:43:02;;;;;;;4.80;1.57;;;20.10;66.90;;;;;;4946389;29;20529;-85
2022/07/11 09:45:41;;;;;;;4.80;1.70;;;20.40;67.80;;;;;;4945631;29;20485;-85
2022/07/11 09:48:10;;;;;;;5.73;1.63;;;20.50;65.90;;;;;;4943276;29;20842;-79
2022/07/11 09:50:39;;;;;;;3.73;1.30;;;20.40;68.10;;;;;;4937801;29;20546;-80
2022/07/11 09:53:07;;;;;;;3.40;1.00;;;20.40;66.50;;;;;;4936714;29;20483;-80
2022/07/11 09:55:36;;;;;;;4.40;1.50;;;20.20;68.20;;;;;;4938542;29;20460;-81
2022/07/11 09:58:07;;;;;;;7.00;2.07;;;20.30;67.80;;;;;;4937599;29;20891;-79
2022/07/11 10:00:35;;;;;;;4.63;1.67;;;20.60;65.90;;;;;;4937716;29;20493;-80
2022/07/11 10:03:02;;;;;;;4.73;1.80;;;20.50;66.00;;;;;;4936526;29;20476;-81
2022/07/11 10:05:33;;;;;;;5.83;1.80;;;21.00;65.70;;;;;;4941734;29;20483;-84
2022/07/11 10:08:03;;;;;;;3.60;1.27;;;21.20;62.90;;;;;;4944920;29;20466;-85
2022/07/11 10:10:35;;;;;;;5.87;1.60;;;21.50;61.80;;;;;;4945103;29;20483;-85
2022/07/11 10:13:04;;;;;;;3.90;1.13;;;21.70;60.70;;;;;;4943467;29;21006;-85
2022/07/11 10:15:45;;;;;;;4.13;1.40;;;22.00;58.70;;;;;;4944439;29;20548;-85
2022/07/11 10:18:25;;;;;;;4.40;1.33;;;22.20;58.20;;;;;;4944208;29;20483;-85
2022/07/11 10:20:56;;;;;;;5.53;1.30;;;22.10;57.90;;;;;;4943731;29;20465;-85
2022/07/11 10:23:35;;;;;;;5.23;1.43;;;22.20;57.10;;;;;;4943388;29;20547;-85
2022/07/11 10:26:25;;;;;;;4.20;1.30;;;21.90;57.40;;;;;;4944090;29;20477;-85
2022/07/11 10:28:59;;;;;;;4.90;1.00;;;21.30;59.40;;;;;;4943917;29;20458;-85
2022/07/11 10:31:30;;;;;;;4.13;1.40;;;21.00;60.40;;;;;;4943717;29;20457;-85
2022/07/11 10:34:16;;;;;;;3.90;1.00;;;20.70;61.50;;;;;;4943918;29;20460;-85
2022/07/11 10:36:46;;;;;;;3.87;1.20;;;20.60;63.90;;;;;;4944590;29;20453;-84
2022/07/11 10:39:24;;;;;;;3.47;1.00;;;20.40;64.00;;;;;;4944875;29;20448;-84
2022/07/11 10:41:52;;;;;;;4.80;1.00;;;20.50;65.30;;;;;;4944166;29;20503;-85
2022/07/11 10:44:22;;;;;;;4.03;1.33;;;20.50;64.40;;;;;;4943854;29;20449;-85
2022/07/11 10:46:51;;;;;;;5.30;1.33;;;20.80;64.20;;;;;;4944551;29;20915;-85
2022/07/11 10:49:23;;;;;;;5.03;1.40;;;20.70;64.30;;;;;;4944888;29;20535;-85
2022/07/11 10:51:57;;;;;;;5.70;1.50;;;20.70;62.60;;;;;;4944302;29;20473;-84
2022/07/11 10:54:57;;;;;;;3.50;1.10;;;20.60;63.60;;;;;;4937081;29;20462;-85
2022/07/11 10:57:28;;;;;;;4.10;1.37;;;20.60;64.70;;;;;;4944420;29;20459;-86
2022/07/11 11:03:05;;;;;;;3.80;1.23;;;21.00;62.80;;;;;;4943887;29;21008;-85
2022/07/11 11:05:52;;;;;;;6.07;1.50;;;21.00;62.00;;;;;;4939838;29;20452;-85
2022/07/11 11:08:42;;;;;;;3.47;0.80;;;20.80;63.30;;;;;;4948228;29;20593;-85
2022/07/11 11:12:09;;;;;;;3.70;1.00;;;20.60;62.10;;;;;;4948263;29;20462;-85
2022/07/11 11:14:41;;;;;;;4.83;1.20;;;20.40;63.20;;;;;;4947693;29;20881;-85
2022/07/11 11:17:36;;;;;;;3.50;1.00;;;20.70;62.50;;;;;;4946772;29;20874;-85
2022/07/11 11:20:07;;;;;;;6.27;2.10;;;20.70;64.30;;;;;;4948994;29;20457;-85
2022/07/11 11:22:44;;;;;;;6.03;1.63;;;20.60;62.40;;;;;;4947700;29;20464;-85
2022/07/11 11:25:12;;;;;;;4.23;1.20;;;21.10;61.10;;;;;;4947402;29;20467;-86
2022/07/11 11:28:08;;;;;;;3.80;1.37;;;21.70;58.30;;;;;;4946489;29;20479;-85
2022/07/11 11:30:39;;;;;;;4.77;1.20;;;22.60;55.70;;;;;;4946842;29;20462;-85
2022/07/11 11:33:19;;;;;;;3.70;1.10;;;23.20;55.30;;;;;;4946406;29;20523;-86
2022/07/11 11:35:50;;;;;;;4.13;1.00;;;23.80;47.90;;;;;;4946678;29;20456;-86
2022/07/11 11:38:21;;;;;;;4.70;1.00;;;24.30;44.80;;;;;;4946621;29;20457;-85
2022/07/11 11:40:58;;;;;;;5.30;1.20;;;24.50;46.90;;;;;;4946358;29;20464;-85
2022/07/11 11:43:26;;;;;;;4.93;1.10;;;24.70;39.70;;;;;;4945359;29;20535;-85
2022/07/11 11:46:01;;;;;;;4.40;0.93;;;24.70;40.30;;;;;;4946691;29;20480;-85
2022/07/11 11:48:33;;;;;;;3.70;1.00;;;24.50;41.10;;;;;;4947003;29;20452;-86
2022/07/11 11:51:26;;;;;;;3.90;1.13;;;24.40;39.40;;;;;;4946521;29;20535;-86
2022/07/11 11:54:03;;;;;;;4.77;0.80;;;24.30;40.90;;;;;;4946074;29;20456;-85
2022/07/11 11:56:33;;;;;;;3.87;0.87;;;24.70;39.70;;;;;;4945676;29;20452;-85
2022/07/11 11:59:07;;;;;;;5.40;0.90;;;24.50;39.50;;;;;;4945701;29;20811;-85
2022/07/11 12:01:39;;;;;;;6.90;1.07;;;24.80;38.40;;;;;;4945554;29;20464;-86
2022/07/11 12:04:14;;;;;;;3.53;0.70;;;24.60;41.40;;;;;;4945335;29;20464;-86
2022/07/11 12:06:46;;;;;;;3.73;0.77;;;23.90;40.90;;;;;;4945940;29;20508;-85
2022/07/11 12:09:22;;;;;;;3.60;0.80;;;23.70;42.50;;;;;;4946616;29;20457;-85
2022/07/11 12:12:43;;;;;;;3.77;0.80;;;23.10;43.90;;;;;;4946113;29;20482;-85
2022/07/11 12:14:40;;;;;;;3.80;1.00;;;23.00;45.50;;;;;;4945725;29;20448;-86
2022/07/11 12:17:08;;;;;;;3.70;0.90;;;23.10;48.80;;;;;;4944724;29;20454;-85
2022/07/11 12:19:36;;;;;;;3.70;0.70;;;23.40;44.40;;;;;;4945124;29;20495;-85
2022/07/11 12:22:06;;;;;;;3.93;1.00;;;23.10;45.00;;;;;;4944330;29;20562;-86
2022/07/11 12:24:52;;;;;;;5.70;1.30;;;23.40;46.40;;;;;;4940474;29;20453;-85
2022/07/11 12:27:19;;;;;;;3.50;0.73;;;23.70;41.90;;;;;;4941779;29;20528;-86
2022/07/11 12:29:50;;;;;;;3.47;0.70;;;24.00;43.00;;;;;;4940684;29;20475;-86
2022/07/11 12:32:22;;;;;;;3.60;0.90;;;24.20;43.70;;;;;;4938519;29;20525;-86
2022/07/11 12:34:53;;;;;;;3.50;0.80;;;24.60;40.80;;;;;;4939831;29;20465;-86
2022/07/11 12:37:21;;;;;;;3.60;0.80;;;24.30;37.80;;;;;;4940950;29;20842;-86
2022/07/11 12:39:51;;;;;;;3.77;0.80;;;24.10;39.10;;;;;;4940441;29;20551;-86
2022/07/11 12:42:26;;;;;;;3.80;0.90;;;24.20;39.30;;;;;;4944123;29;20487;-86
2022/07/11 12:44:58;;;;;;;4.37;1.33;;;23.80;42.20;;;;;;4939709;29;20460;-86
2022/07/11 12:47:28;;;;;;;6.80;1.47;;;23.40;41.10;;;;;;4937894;29;20482;-86
2022/07/11 12:49:56;;;;;;;4.00;1.20;;;23.70;40.90;;;;;;4938764;29;20460;-86
2022/07/11 12:52:23;;;;;;;4.70;1.13;;;23.80;38.90;;;;;;4939460;29;20508;-85
2022/07/11 12:54:52;;;;;;;3.67;0.80;;;23.50;42.10;;;;;;4940342;29;20535;-86
2022/07/11 12:57:22;;;;;;;3.63;0.80;;;23.50;40.70;;;;;;4940663;29;20524;-86
2022/07/11 12:59:49;;;;;;;3.60;0.90;;;23.00;42.70;;;;;;4940307;29;20467;-86
2022/07/11 13:02:17;;;;;;;3.90;0.97;;;22.90;44.40;;;;;;4940163;29;20495;-86
2022/07/11 13:04:51;;;;;;;4.10;1.07;;;23.00;45.70;;;;;;4939442;29;20505;-86
2022/07/11 13:10:11;;;;;;;4.83;1.37;;;23.10;44.00;;;;;;4939401;29;20931;-86
2022/07/11 13:12:38;;;;;;;4.00;1.00;;;23.20;43.50;;;;;;4938454;29;20578;-86
2022/07/11 13:15:11;;;;;;;4.00;1.30;;;23.80;41.70;;;;;;4938662;29;20550;-86
2022/07/11 13:17:39;;;;;;;4.90;1.13;;;23.80;42.20;;;;;;4938757;29;20548;-86
2022/07/11 13:20:14;;;;;;;4.47;1.40;;;24.00;42.70;;;;;;4939237;29;20464;-86